Detall de PIREP

Printer-friendly versionPDF version

[2009/02/24 21:03:00]
Flight IATA:CT0001
Pilot Number:011
Company ICAO:CAT
Aircraft Type:F28/A
PAX:85
Departing Airport: LEBL
Destination Airport: LEAL
Alternate Airport:LEPA
Online: VATSIM
Route:LOTOS UM985 VLC
Flight Level:FL270
No Slew and time accel
No pause
Crash detect
Detect pilot in Cockpit between each 30 and 45 minutes
21:03 Zero fuel Weight: 60037 Lbs, Fuel Weight: 9142 Lbs
21:03 VATSIM:LEBL 242030Z 27004KT 250V310 8000 SCT025 SCT055 11/07 Q1020 NOSIG
21:03 VATSIM:LEAL 242030Z 00000KT 9999 FEW014 11/09 Q1020 NOSIG
21:10 Parking Brakes off
21:17 Take-off
21:17 Take off Weight: 68712 Lbs
21:17 Wind: 306 @ 004 Knots Heading: 247
21:17 POS N41 18 00 E002 05 14
21:17 Flaps:2 at 160 Knots
21:17 Gear Up: 174 Knots
21:18 Flaps:3 at 231 Knots
21:18 Flaps:2 at 231 Knots
21:18 Flaps:1 at 232 Knots
21:18 Flaps:0 at 240 Knots
21:32 Wind:024@008 Knots
Heading: 223 Ground Speed: 423 Knots Altitude 25262 ft
21:35 TOC
21:35 Fuel Weight: 6462 Lb
21:40 TOD
21:40 Fuel Weight: 5885 Lb
21:47 Wind:023@014 Knots Heading: 162 Ground Speed: 322 Knots Altitude 15488 ft
22:00 Flaps:1 at 220 Knots
22:00 Flaps:2 at 207 Knots
22:00 Flaps:3 at 185 Knots
22:01 Flaps:4 at 173 Knots
22:01 Gear Down: 170 Knots
22:01 Flaps:5 at 162 Knots
22:02 Wind:069@002 Knots Heading: 277 Ground Speed: 159 Knots Altitude 1797 ft
22:03 TouchDown:Rate -193 ft/min Speed: 117 Knots
22:03 VATSIM:LEAL 242130Z VRB02KT 9999 FEW015 SCT030 11/10 Q1021 NOSIG
22:03 Land
22:03 Wind:078@002 Knots
22:03 Heading: 280
22:03 Flight Duration: 00:46
22:03 Landing Weight: 65102 Lbs
22:03 POS N38 16 56 W000 33 37
22:06 Parking brakes on
22:06 Block to Block Duration: 00:56
22:06 Final Fuel: 4949 Lbls
22:06 Spent Fuel: 4193 Lbls
22:06 Fligh
t Length: 55 NM
22:06 TOD Land Length: 13 NM

Exportar CSV

Powered by Drupal - Modified by Danger4k